createdAt,value
2019-03-16T00:01:56.210Z,54.86
2019-03-16T00:04:26.799Z,54.29
2019-03-16T00:06:59.791Z,54.27
2019-03-16T00:09:32.661Z,55.20
2019-03-16T00:12:44.353Z,54.87
2019-03-16T00:15:37.185Z,55.21
2019-03-16T00:22:01.581Z,57.38
2019-03-16T00:25:20.101Z,55.98
2019-03-16T00:27:54.271Z,55.59
2019-03-16T00:30:24.970Z,56.04
2019-03-16T00:32:57.514Z,56.10
2019-03-16T00:35:32.523Z,55.81
2019-03-16T00:38:04.204Z,54.88
2019-03-16T00:40:36.670Z,55.75
2019-03-16T00:43:08.366Z,55.92
2019-03-16T00:45:38.863Z,55.20
2019-03-16T00:48:10.958Z,55.61
2019-03-16T00:50:48.336Z,55.61
2019-03-16T00:53:20.412Z,55.26
2019-03-16T00:55:54.536Z,55.47
2019-03-16T00:58:27.662Z,55.04
2019-03-16T01:01:00.807Z,55.01
2019-03-16T01:03:33.629Z,54.60
2019-03-16T01:06:07.496Z,55.19
2019-03-16T01:08:38.252Z,54.23
2019-03-16T01:11:08.483Z,53.99
2019-03-16T01:13:39.846Z,54.97
2019-03-16T01:16:11.847Z,55.10
2019-03-16T01:18:50.028Z,54.37
2019-03-16T01:21:23.230Z,53.72
2019-03-16T01:23:55.045Z,53.83
2019-03-16T01:26:25.968Z,53.83
2019-03-16T01:28:57.401Z,53.80
2019-03-16T01:31:30.145Z,53.47
2019-03-16T01:34:03.136Z,53.61
2019-03-16T01:36:35.701Z,53.33
2019-03-16T01:39:08.798Z,53.29
2019-03-16T01:41:40.453Z,53.42
2019-03-16T01:44:13.566Z,53.53
2019-03-16T01:46:51.461Z,54.02
2019-03-16T01:49:25.435Z,54.14
2019-03-16T01:51:57.171Z,55.68
2019-03-16T01:54:28.580Z,54.95
2019-03-16T01:57:03.048Z,54.65
2019-03-16T01:59:33.995Z,53.87
2019-03-16T02:02:09.956Z,54.14
2019-03-16T02:04:42.019Z,53.41
2019-03-16T02:07:13.007Z,53.80
2019-03-16T02:09:44.690Z,53.61
2019-03-16T02:12:19.709Z,53.15
2019-03-16T02:14:53.650Z,53.02
2019-03-16T02:17:25.383Z,53.12
2019-03-16T02:19:58.231Z,52.65
2019-03-16T02:22:29.364Z,52.93
2019-03-16T02:25:01.374Z,52.74
2019-03-16T02:27:37.173Z,52.27
2019-03-16T02:30:12.265Z,53.85
2019-03-16T02:32:48.791Z,52.79
2019-03-16T02:35:30.753Z,52.34
2019-03-16T02:38:07.021Z,52.78
2019-03-16T02:40:59.126Z,52.74
2019-03-16T02:43:54.580Z,52.50
2019-03-16T02:46:54.221Z,52.37
2019-03-16T02:49:38.394Z,52.34
2019-03-16T02:52:31.472Z,52.08
2019-03-16T02:55:08.350Z,51.79
2019-03-16T02:58:04.231Z,53.22
2019-03-16T03:07:29.315Z,55.12
2019-03-16T03:10:08.224Z,53.40
2019-03-16T03:13:13.306Z,55.67
2019-03-16T03:16:16.570Z,55.48
2019-03-16T03:18:58.611Z,54.68
2019-03-16T03:22:03.192Z,53.66
2019-03-16T03:24:49.751Z,54.16
2019-03-16T03:27:23.733Z,53.92
2019-03-16T03:30:02.939Z,54.69
2019-03-16T03:36:55.136Z,53.23
2019-03-16T03:39:37.738Z,52.81
2019-03-16T03:42:14.446Z,52.87
2019-03-16T03:44:53.980Z,54.64
2019-03-16T03:47:24.180Z,53.57
2019-03-16T03:50:03.033Z,53.64
2019-03-16T03:52:45.468Z,53.63
2019-03-16T03:55:20.410Z,54.20
2019-03-16T03:58:22.219Z,53.53
2019-03-16T04:01:03.064Z,54.08
2019-03-16T04:03:44.924Z,53.27
2019-03-16T04:06:22.344Z,53.25
2019-03-16T04:08:55.772Z,53.94
2019-03-16T04:11:28.469Z,54.11
2019-03-16T04:13:58.715Z,53.61
2019-03-16T04:16:29.378Z,53.23
2019-03-16T04:19:00.827Z,53.81
2019-03-16T04:21:32.071Z,53.61
2019-03-16T04:24:04.822Z,54.82
2019-03-16T04:26:35.327Z,55.25
2019-03-16T04:29:05.838Z,55.73
2019-03-16T04:31:37.635Z,56.46
2019-03-16T04:34:08.641Z,56.85
2019-03-16T04:36:39.320Z,56.10
2019-03-16T04:39:09.879Z,54.84
2019-03-16T04:41:41.719Z,54.76
2019-03-16T04:44:12.230Z,54.56
2019-03-16T04:46:44.978Z,54.46
2019-03-16T04:49:15.321Z,56.25
2019-03-16T04:51:47.024Z,56.08
2019-03-16T04:54:21.696Z,55.39
2019-03-16T04:56:52.998Z,56.16
2019-03-16T04:59:27.905Z,55.23
2019-03-16T05:01:59.911Z,54.80
2019-03-16T05:04:41.974Z,55.88
2019-03-16T05:07:02.879Z,55.76
2019-03-16T05:09:34.487Z,55.03
2019-03-16T05:12:05.711Z,54.33
2019-03-16T05:14:36.432Z,54.56
2019-03-16T05:17:09.596Z,55.19
2019-03-16T05:19:39.741Z,54.80
2019-03-16T05:22:11.990Z,56.86
2019-03-16T05:24:42.632Z,56.42
2019-03-16T05:27:14.095Z,55.75
2019-03-16T05:29:44.612Z,55.93
2019-03-16T05:32:17.013Z,56.01
2019-03-16T05:34:56.398Z,57.43
2019-03-16T05:37:25.273Z,56.40
2019-03-16T05:39:55.458Z,56.40
2019-03-16T05:42:26.387Z,57.03
2019-03-16T05:44:58.436Z,56.29
2019-03-16T05:47:29.919Z,56.26
2019-03-16T05:50:00.511Z,56.10
2019-03-16T05:52:30.685Z,57.52
2019-03-16T05:55:04.172Z,56.26
2019-03-16T05:57:35.202Z,55.40
2019-03-16T06:00:09.945Z,57.28
2019-03-16T06:02:40.925Z,56.39
2019-03-16T06:05:12.036Z,56.71
2019-03-16T06:07:43.788Z,55.68
2019-03-16T06:10:14.919Z,55.88
2019-03-16T06:12:46.804Z,56.61
2019-03-16T06:15:17.331Z,56.41
2019-03-16T06:17:49.798Z,56.49
2019-03-16T06:20:25.829Z,56.24
2019-03-16T06:22:56.776Z,55.19
2019-03-16T06:25:27.826Z,55.52
2019-03-16T06:28:00.916Z,55.52
2019-03-16T06:30:31.481Z,54.50
2019-03-16T06:33:01.774Z,54.36
2019-03-16T06:35:34.561Z,55.05
2019-03-16T06:38:06.939Z,54.83
2019-03-16T06:40:39.710Z,54.57
2019-03-16T06:43:13.556Z,55.32
2019-03-16T06:45:43.852Z,56.09
2019-03-16T06:48:15.098Z,55.12
2019-03-16T06:50:46.135Z,57.21
2019-03-16T06:53:19.679Z,57.96
2019-03-16T06:55:54.723Z,56.77
2019-03-16T06:58:25.621Z,57.93
2019-03-16T07:00:57.796Z,59.85
2019-03-16T07:03:29.093Z,60.94
2019-03-16T07:06:00.173Z,61.73
2019-03-16T07:08:34.082Z,65.77
2019-03-16T07:11:04.967Z,63.98
2019-03-16T07:13:35.553Z,64.16
2019-03-16T07:16:06.416Z,62.21
2019-03-16T07:18:36.645Z,60.86
2019-03-16T07:21:06.940Z,64.48
2019-03-16T07:23:37.299Z,62.37
2019-03-16T07:26:15.036Z,62.98
2019-03-16T07:28:51.602Z,62.79
2019-03-16T07:31:22.375Z,62.60
2019-03-16T07:33:53.916Z,60.97
2019-03-16T07:36:25.418Z,60.50
2019-03-16T07:38:55.945Z,62.16
2019-03-16T07:41:26.859Z,63.19
2019-03-16T07:44:00.855Z,62.31
2019-03-16T07:46:33.323Z,63.52
2019-03-16T07:49:06.211Z,63.00
2019-03-16T07:51:38.132Z,63.40
2019-03-16T07:54:09.651Z,62.32
2019-03-16T07:56:40.758Z,60.99
2019-03-16T07:59:11.968Z,61.13
2019-03-16T08:01:43.519Z,60.77
2019-03-16T08:04:16.283Z,60.23
2019-03-16T08:06:47.027Z,59.40
2019-03-16T08:09:18.960Z,61.17
2019-03-16T08:11:53.584Z,62.65
2019-03-16T08:14:27.907Z,60.40
2019-03-16T08:16:58.855Z,59.13
2019-03-16T08:19:30.796Z,59.12
2019-03-16T08:22:01.401Z,59.93
2019-03-16T08:24:37.706Z,59.68
2019-03-16T08:27:09.490Z,59.51
2019-03-16T08:29:41.077Z,61.44
2019-03-16T08:32:12.017Z,62.57
2019-03-16T08:34:42.735Z,63.62
2019-03-16T08:37:15.428Z,61.85
2019-03-16T08:39:47.553Z,60.79
2019-03-16T08:42:18.535Z,61.98
2019-03-16T08:44:53.734Z,60.09
2019-03-16T08:47:31.594Z,59.90
2019-03-16T08:50:03.166Z,59.53
2019-03-16T08:52:42.894Z,59.31
2019-03-16T08:55:15.396Z,59.70
2019-03-16T08:57:46.435Z,59.66
2019-03-16T09:00:19.294Z,59.68
2019-03-16T09:02:53.499Z,60.62
2019-03-16T09:05:25.347Z,60.70
2019-03-16T09:07:56.240Z,60.27
2019-03-16T09:10:27.831Z,60.59
2019-03-16T09:13:00.022Z,59.20
2019-03-16T09:15:32.990Z,58.48
2019-03-16T09:18:06.122Z,58.87
2019-03-16T09:20:38.503Z,58.61
2019-03-16T09:23:11.103Z,60.04
2019-03-16T09:25:45.524Z,61.72
2019-03-16T09:28:20.348Z,61.18
2019-03-16T09:30:52.912Z,61.05
2019-03-16T09:33:24.443Z,60.17
2019-03-16T09:35:54.959Z,64.02
2019-03-16T09:38:26.215Z,61.50
2019-03-16T09:40:57.021Z,60.53
2019-03-16T09:43:46.922Z,61.41
2019-03-16T09:46:20.378Z,63.81
2019-03-16T09:48:54.129Z,61.16
2019-03-16T09:51:28.943Z,60.75
2019-03-16T09:53:59.934Z,58.16
2019-03-16T09:56:32.845Z,56.40
2019-03-16T09:59:05.690Z,55.53
2019-03-16T10:01:59.863Z,55.28
2019-03-16T10:04:34.293Z,57.85
2019-03-16T10:07:05.240Z,56.25
2019-03-16T10:09:37.679Z,56.46
2019-03-16T10:12:09.335Z,57.45
2019-03-16T10:14:41.658Z,54.95
2019-03-16T10:17:16.107Z,57.99
2019-03-16T10:31:19.496Z,61.74
2019-03-16T10:35:08.105Z,58.24
2019-03-16T10:45:25.697Z,58.55
2019-03-16T10:47:55.925Z,59.22
2019-03-16T10:57:18.702Z,57.53
2019-03-16T10:59:49.192Z,56.48
2019-03-16T11:02:21.739Z,55.46
2019-03-16T11:04:53.901Z,53.47
2019-03-16T11:07:29.228Z,54.75
2019-03-16T11:10:35.184Z,53.32
2019-03-16T11:13:09.311Z,52.53
2019-03-16T11:15:42.558Z,53.11
2019-03-16T11:18:13.405Z,51.07
2019-03-16T11:20:46.262Z,49.58
2019-03-16T11:23:19.754Z,47.57
2019-03-16T11:25:50.798Z,49.04
2019-03-16T11:28:24.117Z,48.51
2019-03-16T11:30:56.332Z,48.20
2019-03-16T11:33:48.302Z,45.65
2019-03-16T11:36:20.364Z,44.50
2019-03-16T11:39:11.503Z,47.17
2019-03-16T11:44:50.297Z,48.48
2019-03-16T11:47:20.511Z,48.02
2019-03-16T11:57:51.216Z,49.72
2019-03-16T12:00:26.332Z,49.63
2019-03-16T12:03:06.111Z,49.73
2019-03-16T12:05:50.447Z,50.75
2019-03-16T12:08:27.925Z,48.45
2019-03-16T12:11:02.733Z,48.12
2019-03-16T12:13:39.619Z,47.71
2019-03-16T12:16:16.572Z,46.85
2019-03-16T12:18:48.016Z,49.13
2019-03-16T12:21:22.199Z,47.90
2019-03-16T12:23:53.960Z,48.13
2019-03-16T12:26:27.116Z,49.51
2019-03-16T12:29:00.154Z,49.04
2019-03-16T12:31:30.364Z,49.04
2019-03-16T12:34:04.111Z,46.80
2019-03-16T12:36:36.174Z,47.42
2019-03-16T12:39:10.663Z,47.72
2019-03-16T12:41:41.214Z,48.57
2019-03-16T12:44:15.641Z,49.72
2019-03-16T12:46:48.382Z,49.24
2019-03-16T12:49:20.833Z,47.79
2019-03-16T12:51:51.001Z,47.42
2019-03-16T12:54:23.539Z,52.37
2019-03-16T12:56:58.727Z,52.16
2019-03-16T12:59:31.524Z,52.94
2019-03-16T13:02:04.705Z,52.29
2019-03-16T13:04:35.574Z,53.41
2019-03-16T13:07:07.807Z,53.24
2019-03-16T13:09:42.372Z,52.80
2019-03-16T13:12:16.294Z,52.15
2019-03-16T13:14:54.331Z,50.85
2019-03-16T13:17:27.745Z,50.17
2019-03-16T13:19:59.586Z,49.89
2019-03-16T13:22:32.761Z,50.11
2019-03-16T13:25:07.185Z,51.46
2019-03-16T13:27:40.405Z,51.86
2019-03-16T13:30:15.644Z,50.69
2019-03-16T13:32:49.900Z,50.72
2019-03-16T13:35:20.727Z,50.77
2019-03-16T13:37:53.638Z,50.77
2019-03-16T13:40:25.084Z,49.57
2019-03-16T13:42:56.157Z,48.97
2019-03-16T13:45:30.706Z,49.63
2019-03-16T13:48:02.728Z,51.21
2019-03-16T13:50:34.657Z,49.68
2019-03-16T13:53:08.267Z,49.49
2019-03-16T13:55:40.402Z,48.50
2019-03-16T13:58:14.260Z,47.83
2019-03-16T14:00:48.840Z,47.60
2019-03-16T14:03:19.607Z,49.52
2019-03-16T14:06:10.817Z,48.00
2019-03-16T14:08:55.359Z,47.75
2019-03-16T14:11:27.069Z,49.33
2019-03-16T14:14:00.417Z,49.73
2019-03-16T14:16:33.803Z,50.05
2019-03-16T14:19:12.566Z,50.96
2019-03-16T14:21:51.885Z,48.43
2019-03-16T14:24:46.563Z,49.15
2019-03-16T14:27:21.270Z,47.83
2019-03-16T14:29:52.814Z,48.46
2019-03-16T14:32:25.866Z,47.98
2019-03-16T14:34:56.515Z,46.23
2019-03-16T14:37:27.720Z,46.94
2019-03-16T14:40:00.088Z,45.24
2019-03-16T14:42:34.153Z,44.87
2019-03-16T14:45:06.365Z,46.62
2019-03-16T14:47:41.710Z,47.19
2019-03-16T14:50:17.846Z,47.16
2019-03-16T14:52:51.782Z,46.38
2019-03-16T14:55:33.402Z,49.40
2019-03-16T14:58:04.809Z,50.67
2019-03-16T15:01:37.626Z,49.08
2019-03-16T15:04:10.202Z,48.45
2019-03-16T15:06:59.589Z,49.10
2019-03-16T15:09:31.944Z,48.60
2019-03-16T15:12:22.886Z,48.46
2019-03-16T15:14:55.461Z,48.61
2019-03-16T15:17:29.407Z,47.19
2019-03-16T15:20:08.576Z,48.23
2019-03-16T15:22:39.335Z,46.38
2019-03-16T15:25:16.106Z,45.84
2019-03-16T15:27:46.723Z,45.57
2019-03-16T15:30:24.376Z,46.11
2019-03-16T15:33:00.380Z,46.02
2019-03-16T15:35:33.929Z,44.06
2019-03-16T15:38:08.381Z,44.58
2019-03-16T15:40:45.358Z,45.82
2019-03-16T15:43:17.317Z,46.25
2019-03-16T15:45:50.467Z,46.78
2019-03-16T15:48:25.698Z,45.99
2019-03-16T15:50:56.773Z,45.36
2019-03-16T15:53:27.514Z,45.04
2019-03-16T15:55:59.676Z,48.01
2019-03-16T15:58:30.177Z,46.30
2019-03-16T16:01:03.747Z,46.66
2019-03-16T16:03:33.451Z,45.54
2019-03-16T16:06:08.677Z,46.16
2019-03-16T16:08:39.222Z,45.09
2019-03-16T16:11:12.762Z,46.39
2019-03-16T16:13:48.319Z,47.05
2019-03-16T16:16:20.705Z,46.93
2019-03-16T16:18:50.708Z,45.42
2019-03-16T16:24:25.625Z,45.15
2019-03-16T16:26:57.898Z,43.82
2019-03-16T16:29:31.743Z,43.09
2019-03-16T16:32:06.512Z,44.25
2019-03-16T16:34:39.869Z,45.21
2019-03-16T16:37:18.775Z,45.33
2019-03-16T16:39:50.219Z,46.74
2019-03-16T16:42:23.074Z,46.51
2019-03-16T16:44:55.451Z,46.45
2019-03-16T16:47:28.763Z,45.45
2019-03-16T16:50:03.604Z,46.70
2019-03-16T16:52:38.477Z,45.98
2019-03-16T16:55:13.327Z,44.71
2019-03-16T16:57:47.806Z,45.11
2019-03-16T17:00:20.011Z,45.26
2019-03-16T17:02:56.934Z,43.31
2019-03-16T17:05:36.102Z,43.90
2019-03-16T17:08:17.931Z,44.34
2019-03-16T17:10:50.816Z,45.25
2019-03-16T17:13:29.616Z,45.23
2019-03-16T17:16:05.308Z,44.65
2019-03-16T17:18:46.886Z,44.63
2019-03-16T17:21:23.345Z,45.70
2019-03-16T17:23:57.542Z,47.17
2019-03-16T17:26:35.983Z,46.47
2019-03-16T17:33:22.566Z,45.44
2019-03-16T17:36:42.015Z,43.83
2019-03-16T17:40:03.184Z,43.74
2019-03-16T17:42:39.906Z,43.03
2019-03-16T17:48:57.419Z,43.43
2019-03-16T17:51:30.518Z,42.99
2019-03-16T17:54:04.535Z,43.27
2019-03-16T17:56:38.766Z,42.48
2019-03-16T17:59:15.323Z,41.79
2019-03-16T18:01:54.487Z,42.54
2019-03-16T18:04:24.497Z,42.71
2019-03-16T18:06:55.039Z,42.89
2019-03-16T18:54:12.133Z,41.28
2019-03-16T19:08:14.996Z,42.54
2019-03-16T19:14:24.974Z,41.61
2019-03-16T19:25:25.080Z,42.27
2019-03-16T19:28:02.965Z,42.38
2019-03-16T19:30:34.639Z,42.20
2019-03-16T19:33:07.665Z,42.08
2019-03-16T19:35:40.772Z,42.33
2019-03-16T19:38:15.534Z,42.11
2019-03-16T19:40:46.325Z,42.28
2019-03-16T19:43:19.902Z,41.97
2019-03-16T19:45:50.326Z,41.79
2019-03-16T19:48:20.625Z,41.85
2019-03-16T19:50:54.942Z,41.70
2019-03-16T19:53:28.237Z,42.16
2019-03-16T19:56:03.611Z,42.27
2019-03-16T19:58:35.983Z,42.20
2019-03-16T20:01:12.320Z,42.54
2019-03-16T20:03:42.807Z,42.31
2019-03-16T20:06:25.232Z,42.27
2019-03-16T20:08:49.748Z,41.82
2019-03-16T20:11:23.256Z,41.67
2019-03-16T20:13:58.016Z,42.37
2019-03-16T20:16:38.101Z,41.96
2019-03-16T20:19:14.444Z,41.90
2019-03-16T20:21:47.959Z,41.58
2019-03-16T20:24:27.583Z,42.27
2019-03-16T20:27:07.097Z,42.53
2019-03-16T20:29:44.950Z,42.07
2019-03-16T20:32:20.558Z,42.08
2019-03-16T20:34:51.995Z,42.14
2019-03-16T20:37:23.477Z,41.72
2019-03-16T20:39:58.935Z,42.17
2019-03-16T20:42:32.621Z,41.84
2019-03-16T20:45:04.352Z,42.08
2019-03-16T20:47:34.947Z,42.48
2019-03-16T20:50:06.055Z,42.91
2019-03-16T20:52:39.389Z,42.53
2019-03-16T20:55:12.377Z,42.23
2019-03-16T20:57:43.100Z,42.18
2019-03-16T21:00:18.585Z,42.19
2019-03-16T21:02:49.216Z,42.44
2019-03-16T21:05:30.248Z,42.00
2019-03-16T21:08:08.901Z,42.41
2019-03-16T21:10:47.431Z,42.70
2019-03-16T21:13:18.307Z,42.88
2019-03-16T21:15:48.540Z,42.55
2019-03-16T21:18:19.102Z,42.32
2019-03-16T21:20:52.650Z,42.57
2019-03-16T21:23:23.222Z,42.66
2019-03-16T21:25:54.428Z,42.39
2019-03-16T21:28:27.932Z,42.69
2019-03-16T21:31:03.092Z,42.31
2019-03-16T21:33:37.755Z,42.73
2019-03-16T21:36:12.541Z,43.12
2019-03-16T21:38:50.144Z,43.75
2019-03-16T21:41:21.291Z,43.42
2019-03-16T21:43:51.978Z,44.81
2019-03-16T21:46:23.472Z,44.29
2019-03-16T21:48:56.299Z,43.80
2019-03-16T21:51:30.734Z,44.84
2019-03-16T21:54:04.761Z,44.80
2019-03-16T21:56:36.857Z,44.96
2019-03-16T21:59:13.115Z,46.78
2019-03-16T22:01:49.838Z,46.09
2019-03-16T22:04:25.100Z,46.46
2019-03-16T22:06:56.733Z,45.50
2019-03-16T22:09:29.882Z,46.20
2019-03-16T22:12:03.475Z,47.58
2019-03-16T22:14:35.751Z,46.38
2019-03-16T22:17:07.850Z,45.25
2019-03-16T22:24:27.200Z,45.07
2019-03-16T22:30:37.770Z,45.12
2019-03-16T22:34:14.197Z,44.10
2019-03-16T22:37:57.634Z,43.66
2019-03-16T22:40:30.189Z,43.67
2019-03-16T22:43:46.188Z,43.11
2019-03-16T22:49:38.488Z,42.52
2019-03-16T22:52:32.578Z,42.03
2019-03-16T22:55:15.658Z,42.81
2019-03-16T23:02:52.089Z,42.34
2019-03-16T23:05:37.690Z,42.27
2019-03-16T23:15:24.825Z,42.08
2019-03-16T23:20:52.025Z,43.12
2019-03-16T23:23:25.846Z,43.09
2019-03-16T23:26:00.003Z,43.68
2019-03-16T23:28:40.114Z,43.40
2019-03-16T23:34:39.803Z,43.60
2019-03-16T23:37:16.972Z,42.75
2019-03-16T23:39:50.558Z,43.74
2019-03-16T23:42:22.881Z,44.21
2019-03-16T23:45:01.921Z,43.32
2019-03-16T23:47:33.174Z,42.70
2019-03-16T23:50:06.945Z,43.02
2019-03-16T23:52:42.440Z,43.16
2019-03-16T23:55:14.844Z,42.47
2019-03-16T23:57:49.217Z,42.56
